createdAt,value
2023-05-10T00:00:01.208Z,94.33
2023-05-10T00:00:13.933Z,94.28
2023-05-10T00:00:26.306Z,94.76
2023-05-10T00:00:37.994Z,94.52
2023-05-10T00:00:49.736Z,94.92
2023-05-10T00:01:01.408Z,94.71
2023-05-10T00:01:13.048Z,95.07
2023-05-10T00:01:24.814Z,94.65
2023-05-10T00:01:36.615Z,94.91
2023-05-10T00:01:48.389Z,95.07
2023-05-10T00:02:00.137Z,95.27
2023-05-10T00:02:11.989Z,95.41
2023-05-10T00:02:23.838Z,95.66
2023-05-10T00:02:35.721Z,95.72
2023-05-10T00:02:47.689Z,95.54
2023-05-10T00:02:59.519Z,95.82
2023-05-10T00:03:11.401Z,95.57
2023-05-10T00:03:23.295Z,95.68
2023-05-10T00:03:35.090Z,95.45
2023-05-10T00:03:46.895Z,95.96
2023-05-10T00:03:58.730Z,96.08
2023-05-10T00:04:10.381Z,95.93
2023-05-10T00:04:22.116Z,95.92
2023-05-10T00:04:34.009Z,96.14
2023-05-10T00:04:45.639Z,96.13
2023-05-10T00:04:57.247Z,96.33
2023-05-10T00:05:09.265Z,96.24
2023-05-10T00:05:21.204Z,96.47
2023-05-10T00:05:33.055Z,96.20
2023-05-10T00:05:44.816Z,96.63
2023-05-10T00:05:56.508Z,96.63
2023-05-10T00:06:08.313Z,96.55
2023-05-10T00:06:20.049Z,96.18
2023-05-10T00:06:31.737Z,96.35
2023-05-10T00:06:43.421Z,96.66
2023-05-10T00:06:55.169Z,96.81
2023-05-10T00:07:06.907Z,96.70
2023-05-10T00:07:19.867Z,96.35
2023-05-10T00:07:31.640Z,96.92
2023-05-10T00:07:43.323Z,96.50
2023-05-10T00:07:54.963Z,96.68
2023-05-10T00:08:06.555Z,96.87
2023-05-10T00:08:18.542Z,97.22
2023-05-10T00:08:30.236Z,97.26
2023-05-10T00:08:42.080Z,97.40
2023-05-10T00:08:53.771Z,97.75
2023-05-10T00:09:05.441Z,97.24
2023-05-10T00:09:17.233Z,97.04
2023-05-10T00:09:28.957Z,97.51
2023-05-10T00:09:40.658Z,97.53
2023-05-10T00:09:52.263Z,97.63
2023-05-10T00:10:04.399Z,97.37
2023-05-10T00:10:16.268Z,97.24
2023-05-10T00:10:28.144Z,97.64
2023-05-10T00:10:39.900Z,98.09
2023-05-10T00:10:51.669Z,97.52
2023-05-10T00:11:03.380Z,97.70
2023-05-10T00:11:15.050Z,97.70
2023-05-10T00:11:26.766Z,98.06
2023-05-10T00:11:38.542Z,98.12
2023-05-10T00:11:50.238Z,98.31
2023-05-10T00:12:01.902Z,98.34
2023-05-10T00:12:13.600Z,98.19
2023-05-10T00:12:25.285Z,98.61
2023-05-10T00:12:36.932Z,98.73
2023-05-10T00:12:48.589Z,98.37
2023-05-10T00:13:00.362Z,98.91
2023-05-10T00:13:12.044Z,98.85
2023-05-10T00:13:23.901Z,98.57
2023-05-10T00:13:35.670Z,99.02
2023-05-10T00:13:47.462Z,99.09
2023-05-10T00:13:59.110Z,98.61
2023-05-10T00:14:10.861Z,98.82
2023-05-10T00:14:22.575Z,99.17
2023-05-10T00:14:34.285Z,99.17
2023-05-10T00:14:46.043Z,98.88
2023-05-10T00:14:57.741Z,99.20
2023-05-10T00:15:10.216Z,99.39
2023-05-10T00:15:22.108Z,99.62
2023-05-10T00:15:33.778Z,99.63
2023-05-10T00:15:45.557Z,99.63
2023-05-10T00:15:57.237Z,99.54
2023-05-10T00:16:08.940Z,99.85
2023-05-10T00:16:20.651Z,99.48
2023-05-10T00:16:32.426Z,99.99
2023-05-10T00:16:44.123Z,99.56
2023-05-10T00:16:55.860Z,99.71
2023-05-10T00:17:07.532Z,99.62
2023-05-10T00:17:19.175Z,100.00
2023-05-10T00:17:30.883Z,99.52
2023-05-10T00:17:42.641Z,99.62
2023-05-10T00:17:54.352Z,100.00
2023-05-10T00:18:06.370Z,99.90
2023-05-10T00:18:18.070Z,99.83
2023-05-10T00:18:29.691Z,99.82
2023-05-10T00:18:41.469Z,99.94
2023-05-10T00:18:53.109Z,100.00
2023-05-10T00:19:04.795Z,100.00
2023-05-10T00:19:16.948Z,100.00
2023-05-10T00:19:28.710Z,100.00
2023-05-10T00:19:40.342Z,100.00
2023-05-10T00:19:51.984Z,100.00
2023-05-10T00:20:04.156Z,100.00
2023-05-10T00:20:16.108Z,100.00
2023-05-10T00:20:28.163Z,100.00
2023-05-10T00:20:39.828Z,100.00
2023-05-10T00:20:51.755Z,100.00
2023-05-10T00:21:03.717Z,100.00
2023-05-10T00:21:15.364Z,100.00
2023-05-10T00:21:27.183Z,100.00
2023-05-10T00:21:38.905Z,100.00
2023-05-10T00:21:50.516Z,100.00
2023-05-10T00:22:02.204Z,100.00
2023-05-10T00:22:13.825Z,100.00
2023-05-10T00:22:26.924Z,100.00
2023-05-10T00:22:38.656Z,100.00
2023-05-10T00:22:50.322Z,100.00
2023-05-10T00:23:01.980Z,100.00
2023-05-10T00:23:13.702Z,100.00
2023-05-10T00:23:25.360Z,100.00
2023-05-10T00:23:37.085Z,100.00
2023-05-10T00:23:48.748Z,100.00
2023-05-10T00:24:00.484Z,100.00
2023-05-10T00:24:12.133Z,100.00
2023-05-10T00:24:23.849Z,100.00
2023-05-10T00:24:35.593Z,100.00
2023-05-10T00:24:47.293Z,100.00
2023-05-10T00:24:59.198Z,100.00
2023-05-10T00:25:10.904Z,100.00
2023-05-10T00:25:22.730Z,100.00
2023-05-10T00:25:34.516Z,100.00
2023-05-10T00:25:46.243Z,100.00
2023-05-10T00:25:57.885Z,100.00
2023-05-10T00:26:09.546Z,100.00
2023-05-10T00:26:23.066Z,100.00
2023-05-10T00:26:38.290Z,100.00
2023-05-10T00:26:50.194Z,100.00
2023-05-10T00:27:01.873Z,100.00
2023-05-10T00:27:13.578Z,100.00
2023-05-10T00:27:25.419Z,100.00
2023-05-10T00:27:37.213Z,100.00
2023-05-10T00:27:48.922Z,100.00
2023-05-10T00:28:00.572Z,100.00
2023-05-10T00:28:12.265Z,100.00
2023-05-10T00:28:24.234Z,100.00
2023-05-10T00:28:35.919Z,100.00
2023-05-10T00:28:48.262Z,100.00
2023-05-10T00:28:59.957Z,100.00
2023-05-10T00:29:11.659Z,100.00
2023-05-10T00:29:23.328Z,100.00
2023-05-10T00:29:35.086Z,100.00
2023-05-10T00:29:46.724Z,100.00
2023-05-10T00:29:58.468Z,100.00
2023-05-10T00:30:10.500Z,100.00
2023-05-10T00:30:22.311Z,100.00
2023-05-10T00:30:34.043Z,100.00
2023-05-10T00:30:47.058Z,100.00
2023-05-10T00:30:58.818Z,100.00
2023-05-10T00:31:10.418Z,100.00
2023-05-10T00:31:22.162Z,100.00
2023-05-10T00:31:34.103Z,100.00
2023-05-10T00:31:45.872Z,100.00
2023-05-10T00:31:57.617Z,100.00
2023-05-10T00:32:09.425Z,100.00
2023-05-10T00:32:21.350Z,100.00
2023-05-10T00:32:33.206Z,100.00
2023-05-10T00:32:44.943Z,100.00
2023-05-10T00:32:56.659Z,100.00
2023-05-10T00:33:08.469Z,100.00
2023-05-10T00:33:20.223Z,100.00
2023-05-10T00:33:31.893Z,100.00
2023-05-10T00:33:43.599Z,100.00
2023-05-10T00:33:55.644Z,100.00
2023-05-10T00:34:07.307Z,100.00
2023-05-10T00:34:18.938Z,100.00
2023-05-10T00:34:30.596Z,100.00
2023-05-10T00:34:42.283Z,100.00
2023-05-10T00:34:53.948Z,100.00
2023-05-10T00:35:06.301Z,100.00
2023-05-10T00:35:18.160Z,100.00
2023-05-10T00:35:29.814Z,100.00
2023-05-10T00:35:41.519Z,100.00
2023-05-10T00:35:54.589Z,100.00
2023-05-10T00:36:07.084Z,100.00
2023-05-10T00:36:18.724Z,100.00
2023-05-10T00:36:30.425Z,100.00
2023-05-10T00:36:42.126Z,100.00
2023-05-10T00:36:53.786Z,100.00
2023-05-10T00:37:05.482Z,100.00
2023-05-10T00:37:18.447Z,100.00
2023-05-10T00:37:31.437Z,100.00
2023-05-10T00:37:43.112Z,100.00
2023-05-10T00:37:54.804Z,100.00
2023-05-10T00:38:06.412Z,100.00
2023-05-10T00:38:18.059Z,100.00
2023-05-10T00:38:29.730Z,100.00
2023-05-10T00:38:41.935Z,100.00
2023-05-10T00:38:53.619Z,100.00
2023-05-10T00:39:05.426Z,100.00
2023-05-10T00:39:17.182Z,100.00
2023-05-10T00:39:29.911Z,100.00
2023-05-10T00:39:41.601Z,100.00
2023-05-10T00:39:53.281Z,100.00
2023-05-10T00:40:06.313Z,100.00
2023-05-10T00:40:18.358Z,100.00
2023-05-10T00:40:36.348Z,100.00
2023-05-10T00:40:50.495Z,100.00
2023-05-10T00:41:09.978Z,100.00
2023-05-10T00:41:23.791Z,100.00
2023-05-10T00:41:35.577Z,100.00
2023-05-10T00:41:49.271Z,100.00
2023-05-10T00:42:02.006Z,100.00
2023-05-10T00:42:13.994Z,100.00
2023-05-10T00:42:26.416Z,100.00
2023-05-10T00:42:39.733Z,100.00
2023-05-10T00:42:52.496Z,100.00
2023-05-10T00:43:04.250Z,100.00
2023-05-10T00:43:15.953Z,100.00
2023-05-10T00:43:27.738Z,100.00
2023-05-10T00:43:39.430Z,100.00
2023-05-10T00:43:51.161Z,100.00
2023-05-10T00:44:02.896Z,100.00
2023-05-10T00:44:14.741Z,100.00
2023-05-10T00:44:26.453Z,100.00
2023-05-10T00:44:38.198Z,100.00
2023-05-10T00:44:51.094Z,100.00
2023-05-10T00:45:02.851Z,100.00
2023-05-10T00:45:15.356Z,100.00
2023-05-10T00:45:27.204Z,100.00
2023-05-10T00:45:40.960Z,100.00
2023-05-10T00:45:53.567Z,100.00
2023-05-10T00:46:05.836Z,100.00
2023-05-10T00:46:17.876Z,100.00
2023-05-10T00:46:29.873Z,100.00
2023-05-10T00:46:42.348Z,100.00
2023-05-10T00:46:54.974Z,100.00
2023-05-10T00:47:06.850Z,100.00
2023-05-10T00:47:18.694Z,100.00
2023-05-10T00:47:30.633Z,100.00
2023-05-10T00:47:42.423Z,100.00
2023-05-10T00:47:54.248Z,100.00
2023-05-10T00:48:06.636Z,100.00
2023-05-10T00:48:18.413Z,100.00
2023-05-10T00:48:30.691Z,100.00
2023-05-10T00:48:42.797Z,100.00
2023-05-10T00:48:54.927Z,100.00
2023-05-10T00:49:06.957Z,100.00
2023-05-10T00:49:18.873Z,100.00
2023-05-10T00:49:30.929Z,100.00
2023-05-10T00:49:42.719Z,100.00
2023-05-10T00:49:54.623Z,100.00
2023-05-10T00:50:07.589Z,100.00
2023-05-10T00:50:19.494Z,100.00
2023-05-10T00:50:32.222Z,100.00
2023-05-10T00:50:43.973Z,100.00
2023-05-10T00:50:55.779Z,100.00
2023-05-10T00:51:07.505Z,100.00
2023-05-10T00:51:19.452Z,100.00
2023-05-10T00:51:31.421Z,100.00
2023-05-10T00:51:43.134Z,100.00
2023-05-10T00:51:55.356Z,100.00
2023-05-10T00:52:07.296Z,100.00
2023-05-10T00:52:19.134Z,100.00
2023-05-10T00:52:32.472Z,100.00
2023-05-10T00:52:44.584Z,100.00
2023-05-10T00:52:56.436Z,100.00
2023-05-10T00:53:09.099Z,100.00
2023-05-10T00:53:20.862Z,100.00
2023-05-10T00:53:32.857Z,100.00
2023-05-10T00:53:46.324Z,100.00
2023-05-10T00:53:58.241Z,100.00
2023-05-10T00:54:10.851Z,100.00
2023-05-10T00:54:22.616Z,100.00
2023-05-10T00:54:34.549Z,100.00
2023-05-10T00:54:47.195Z,100.00
2023-05-10T00:54:59.049Z,100.00
2023-05-10T00:55:12.470Z,100.00
2023-05-10T00:55:24.532Z,100.00
2023-05-10T00:55:36.537Z,100.00
2023-05-10T00:55:48.316Z,100.00
2023-05-10T00:56:00.459Z,100.00
2023-05-10T00:56:12.584Z,100.00
2023-05-10T00:56:24.313Z,100.00
2023-05-10T00:56:36.552Z,100.00
2023-05-10T00:56:48.250Z,100.00
2023-05-10T00:57:00.185Z,100.00
2023-05-10T00:57:12.112Z,100.00
2023-05-10T00:57:23.996Z,100.00
2023-05-10T00:57:35.774Z,100.00
2023-05-10T00:57:48.140Z,100.00
2023-05-10T00:57:59.894Z,100.00
2023-05-10T00:58:11.634Z,100.00
2023-05-10T00:58:23.305Z,100.00
2023-05-10T00:58:35.037Z,100.00
2023-05-10T00:58:46.726Z,100.00
2023-05-10T00:58:58.557Z,100.00
2023-05-10T00:59:10.475Z,100.00
2023-05-10T00:59:22.189Z,100.00
2023-05-10T00:59:34.157Z,100.00
2023-05-10T00:59:46.634Z,100.00
2023-05-10T00:59:58.999Z,100.00
2023-05-10T01:00:11.957Z,100.00
2023-05-10T01:00:23.674Z,100.00
2023-05-10T01:00:36.528Z,100.00
2023-05-10T01:00:48.954Z,100.00
2023-05-10T01:01:02.359Z,100.00
2023-05-10T01:01:14.571Z,100.00
2023-05-10T01:01:26.368Z,100.00
2023-05-10T01:01:38.752Z,100.00
2023-05-10T01:01:50.685Z,100.00
2023-05-10T01:02:02.756Z,100.00
2023-05-10T01:02:15.202Z,100.00
2023-05-10T01:02:27.023Z,100.00
2023-05-10T01:02:39.261Z,100.00
2023-05-10T01:02:51.154Z,100.00
2023-05-10T01:03:03.810Z,100.00
2023-05-10T01:03:15.690Z,100.00
2023-05-10T01:03:27.530Z,100.00
2023-05-10T01:03:41.022Z,100.00
2023-05-10T01:03:53.206Z,100.00
2023-05-10T01:04:05.137Z,100.00
2023-05-10T01:04:16.804Z,100.00
2023-05-10T01:04:28.683Z,100.00
2023-05-10T01:04:40.491Z,100.00
2023-05-10T01:04:52.513Z,100.00
2023-05-10T01:05:04.969Z,100.00
2023-05-10T01:05:16.853Z,100.00
2023-05-10T01:05:28.706Z,100.00
2023-05-10T01:05:40.408Z,100.00
2023-05-10T01:05:52.099Z,100.00
2023-05-10T01:06:04.123Z,100.00
2023-05-10T01:06:15.824Z,100.00
2023-05-10T01:06:27.716Z,100.00
2023-05-10T01:06:39.385Z,100.00
2023-05-10T01:06:51.068Z,100.00
2023-05-10T01:07:03.090Z,100.00
2023-05-10T01:07:14.767Z,100.00
2023-05-10T01:07:26.464Z,100.00
2023-05-10T01:07:40.574Z,100.00
2023-05-10T01:07:52.219Z,100.00
2023-05-10T01:08:04.053Z,100.00
2023-05-10T01:08:15.894Z,100.00
2023-05-10T01:08:28.701Z,100.00
2023-05-10T01:08:41.552Z,100.00
2023-05-10T01:08:53.220Z,100.00
2023-05-10T01:09:04.960Z,100.00
2023-05-10T01:09:16.666Z,100.00
2023-05-10T01:09:29.662Z,100.00
2023-05-10T01:09:41.445Z,100.00
2023-05-10T01:09:53.128Z,100.00
2023-05-10T01:10:05.395Z,100.00
2023-05-10T01:10:17.398Z,100.00
2023-05-10T01:10:29.746Z,100.00
2023-05-10T01:10:42.154Z,100.00
2023-05-10T01:10:54.475Z,100.00
2023-05-10T01:11:06.292Z,100.00
2023-05-10T01:11:17.995Z,100.00
2023-05-10T01:11:29.697Z,100.00
2023-05-10T01:11:41.435Z,100.00
2023-05-10T01:11:54.011Z,100.00
2023-05-10T01:12:06.515Z,100.00
2023-05-10T01:12:18.348Z,100.00
2023-05-10T01:12:30.314Z,100.00
2023-05-10T01:12:45.241Z,100.00
2023-05-10T01:12:57.218Z,100.00
2023-05-10T01:13:09.086Z,100.00
2023-05-10T01:13:32.280Z,100.00
2023-05-10T01:13:51.762Z,100.00
2023-05-10T01:14:04.119Z,100.00
2023-05-10T01:14:17.582Z,100.00
2023-05-10T01:14:30.050Z,100.00
2023-05-10T01:14:41.803Z,100.00
2023-05-10T01:14:54.276Z,100.00
2023-05-10T01:15:07.958Z,100.00
2023-05-10T01:15:21.534Z,100.00
2023-05-10T01:15:33.357Z,100.00
2023-05-10T01:15:46.118Z,100.00
2023-05-10T01:15:58.684Z,100.00
2023-05-10T01:16:10.366Z,100.00
2023-05-10T01:16:22.083Z,100.00
2023-05-10T01:16:37.279Z,100.00
2023-05-10T01:16:50.307Z,100.00
2023-05-10T01:17:02.380Z,100.00
2023-05-10T01:17:14.634Z,100.00
2023-05-10T01:17:27.277Z,100.00
2023-05-10T01:17:41.694Z,100.00
2023-05-10T01:17:54.361Z,100.00
2023-05-10T01:18:06.281Z,100.00
2023-05-10T01:18:21.708Z,100.00
2023-05-10T01:18:35.845Z,100.00
2023-05-10T01:18:48.046Z,100.00
2023-05-10T01:19:00.043Z,100.00
2023-05-10T01:19:17.950Z,100.00
2023-05-10T01:19:31.935Z,100.00
2023-05-10T01:19:43.672Z,100.00
2023-05-10T01:19:55.719Z,100.00
2023-05-10T01:20:09.388Z,100.00
2023-05-10T01:20:23.130Z,100.00
2023-05-10T01:20:44.072Z,100.00
2023-05-10T01:21:17.671Z,100.00
2023-05-10T01:21:38.966Z,100.00
2023-05-10T01:22:00.344Z,100.00
2023-05-10T01:22:30.207Z,100.00
2023-05-10T01:23:07.439Z,100.00
2023-05-10T01:23:43.953Z,100.00
2023-05-10T01:24:34.398Z,100.00
2023-05-10T01:25:09.619Z,100.00
2023-05-10T01:25:38.856Z,100.00
2023-05-10T01:26:21.387Z,100.00
2023-05-10T01:27:00.716Z,100.00
2023-05-10T01:27:34.263Z,100.00
2023-05-10T01:28:22.480Z,100.00
2023-05-10T01:28:52.428Z,100.00
2023-05-10T01:29:19.773Z,100.00
2023-05-10T01:30:14.266Z,100.00
2023-05-10T01:30:56.792Z,100.00
2023-05-10T01:31:22.944Z,100.00
2023-05-10T01:31:57.056Z,100.00
2023-05-10T01:32:31.868Z,100.00
2023-05-10T01:32:51.950Z,100.00
2023-05-10T01:33:11.882Z,100.00
2023-05-10T01:33:31.145Z,100.00
2023-05-10T01:33:47.885Z,100.00
2023-05-10T01:34:07.967Z,100.00
2023-05-10T01:34:26.632Z,100.00
2023-05-10T01:34:48.497Z,100.00
2023-05-10T01:35:05.658Z,100.00
2023-05-10T01:35:23.927Z,100.00
2023-05-10T01:35:41.077Z,100.00
2023-05-10T01:36:02.179Z,100.00
2023-05-10T01:36:20.315Z,100.00
2023-05-10T01:36:36.000Z,100.00
2023-05-10T01:36:52.328Z,100.00
2023-05-10T01:37:09.969Z,100.00
2023-05-10T01:37:29.943Z,100.00
2023-05-10T01:37:44.299Z,100.00
2023-05-10T01:38:02.766Z,100.00
2023-05-10T01:38:19.715Z,100.00
2023-05-10T01:38:39.155Z,100.00
2023-05-10T01:38:54.109Z,100.00
2023-05-10T01:39:16.632Z,100.00
2023-05-10T01:39:37.715Z,100.00
2023-05-10T01:39:55.961Z,100.00
2023-05-10T01:40:17.440Z,100.00
2023-05-10T01:40:33.407Z,100.00
2023-05-10T01:40:57.990Z,100.00
2023-05-10T01:41:17.826Z,100.00
2023-05-10T01:41:37.675Z,100.00
2023-05-10T01:41:55.458Z,100.00
2023-05-10T01:42:11.323Z,100.00
2023-05-10T01:42:26.916Z,100.00
2023-05-10T01:42:47.657Z,100.00
2023-05-10T01:43:03.894Z,100.00
2023-05-10T01:43:20.864Z,100.00
2023-05-10T01:43:41.597Z,100.00
2023-05-10T01:44:00.361Z,100.00
2023-05-10T01:44:19.204Z,100.00
2023-05-10T01:44:36.631Z,100.00
2023-05-10T01:44:58.830Z,100.00
2023-05-10T01:45:19.246Z,100.00
2023-05-10T01:45:34.841Z,100.00
2023-05-10T01:45:55.629Z,100.00
2023-05-10T01:46:11.889Z,100.00
2023-05-10T01:46:30.765Z,100.00
2023-05-10T01:46:42.611Z,100.00
2023-05-10T01:47:02.449Z,100.00
2023-05-10T01:47:17.960Z,100.00
2023-05-10T01:47:38.333Z,100.00
2023-05-10T01:47:59.525Z,100.00
2023-05-10T01:48:12.699Z,100.00
2023-05-10T01:48:27.245Z,100.00
2023-05-10T01:48:42.990Z,100.00
2023-05-10T01:48:58.126Z,100.00
2023-05-10T01:49:14.775Z,100.00
2023-05-10T01:49:31.803Z,100.00
2023-05-10T01:49:48.577Z,100.00
2023-05-10T01:50:04.278Z,100.00
2023-05-10T01:50:19.182Z,100.00
2023-05-10T01:50:32.744Z,100.00
2023-05-10T01:50:46.403Z,100.00
2023-05-10T01:50:59.092Z,100.00
2023-05-10T01:51:12.342Z,100.00
2023-05-10T01:51:25.971Z,100.00
2023-05-10T01:51:45.670Z,100.00
2023-05-10T01:52:04.956Z,100.00
2023-05-10T01:52:19.592Z,100.00
2023-05-10T01:52:35.500Z,100.00
2023-05-10T01:52:52.408Z,100.00
2023-05-10T01:53:07.590Z,100.00
2023-05-10T01:53:21.246Z,100.00
2023-05-10T01:53:34.714Z,100.00
2023-05-10T01:53:48.885Z,100.00
2023-05-10T01:54:04.887Z,100.00
2023-05-10T01:54:20.402Z,100.00
2023-05-10T01:54:34.370Z,100.00
2023-05-10T01:54:54.762Z,100.00
2023-05-10T01:55:09.976Z,100.00
2023-05-10T01:55:25.157Z,100.00
2023-05-10T01:55:43.899Z,100.00
2023-05-10T01:55:57.453Z,100.00
2023-05-10T01:56:10.404Z,100.00
2023-05-10T01:56:27.100Z,100.00
2023-05-10T01:56:40.401Z,100.00
2023-05-10T01:56:56.936Z,100.00
2023-05-10T01:57:11.617Z,100.00
2023-05-10T01:57:27.151Z,100.00
2023-05-10T01:57:43.160Z,100.00
2023-05-10T01:58:03.063Z,100.00
2023-05-10T01:58:17.993Z,100.00
2023-05-10T01:58:32.563Z,100.00
2023-05-10T01:58:48.185Z,100.00
2023-05-10T01:59:01.705Z,100.00
2023-05-10T01:59:17.516Z,100.00
2023-05-10T01:59:31.574Z,100.00
2023-05-10T01:59:46.355Z,100.00
2023-05-10T02:00:00.455Z,100.00
2023-05-10T02:00:14.544Z,100.00
2023-05-10T02:00:28.070Z,100.00
2023-05-10T02:00:43.456Z,100.00
2023-05-10T02:00:55.290Z,100.00
2023-05-10T02:01:09.084Z,100.00
2023-05-10T02:01:22.841Z,100.00
2023-05-10T02:01:38.391Z,100.00
2023-05-10T02:01:52.040Z,100.00
2023-05-10T02:02:06.730Z,100.00
2023-05-10T02:02:21.185Z,100.00
2023-05-10T02:02:37.874Z,100.00
2023-05-10T02:02:51.572Z,100.00
2023-05-10T02:03:08.755Z,100.00
2023-05-10T02:03:24.213Z,100.00
2023-05-10T02:03:39.025Z,100.00
2023-05-10T02:03:52.722Z,100.00
2023-05-10T02:04:07.329Z,100.00
2023-05-10T02:04:22.845Z,100.00
2023-05-10T02:04:38.137Z,100.00
2023-05-10T02:04:51.610Z,100.00
2023-05-10T02:05:04.872Z,100.00
2023-05-10T02:05:18.120Z,100.00
2023-05-10T02:05:32.990Z,100.00
2023-05-10T02:05:46.879Z,100.00
2023-05-10T02:05:59.730Z,100.00
2023-05-10T02:06:13.758Z,100.00
2023-05-10T02:06:26.956Z,100.00
2023-05-10T02:06:40.166Z,100.00
2023-05-10T02:06:53.870Z,100.00
2023-05-10T02:07:06.626Z,100.00
2023-05-10T02:07:19.998Z,100.00
2023-05-10T02:07:33.317Z,100.00
2023-05-10T02:07:46.150Z,100.00
2023-05-10T02:07:59.846Z,100.00
2023-05-10T02:08:12.647Z,100.00
2023-05-10T02:08:25.726Z,100.00
2023-05-10T02:08:38.135Z,100.00
2023-05-10T02:08:52.447Z,100.00
2023-05-10T02:09:04.593Z,100.00
2023-05-10T02:09:17.501Z,100.00
2023-05-10T02:09:31.065Z,100.00
2023-05-10T02:09:46.405Z,100.00
2023-05-10T02:09:59.730Z,100.00
2023-05-10T02:10:12.423Z,100.00
2023-05-10T02:10:24.224Z,100.00
2023-05-10T02:10:36.612Z,100.00
2023-05-10T02:10:50.143Z,100.00
2023-05-10T02:11:02.886Z,100.00
2023-05-10T02:11:15.016Z,100.00
2023-05-10T02:11:29.178Z,100.00
2023-05-10T02:11:43.815Z,100.00
2023-05-10T02:11:57.953Z,100.00
2023-05-10T02:12:10.352Z,100.00
2023-05-10T02:12:25.053Z,100.00
2023-05-10T02:12:38.886Z,100.00
2023-05-10T02:12:52.058Z,100.00
2023-05-10T02:13:06.575Z,100.00
2023-05-10T02:13:19.270Z,100.00
2023-05-10T02:13:34.802Z,100.00
2023-05-10T02:13:50.017Z,100.00
2023-05-10T02:14:02.345Z,100.00
2023-05-10T02:14:16.436Z,100.00
2023-05-10T02:14:29.747Z,100.00
2023-05-10T02:14:43.762Z,100.00
2023-05-10T02:14:57.087Z,100.00
2023-05-10T02:15:11.448Z,100.00
2023-05-10T02:15:24.782Z,100.00
2023-05-10T02:15:39.569Z,100.00
2023-05-10T02:15:54.011Z,100.00
2023-05-10T02:16:07.117Z,100.00
2023-05-10T02:16:22.125Z,100.00
2023-05-10T02:16:33.875Z,100.00
2023-05-10T02:16:47.161Z,100.00
2023-05-10T02:17:00.679Z,100.00
2023-05-10T02:17:15.156Z,100.00
2023-05-10T02:17:28.391Z,100.00
2023-05-10T02:17:41.097Z,100.00
2023-05-10T02:17:55.693Z,100.00
2023-05-10T02:18:10.056Z,100.00
2023-05-10T02:18:24.711Z,100.00
2023-05-10T02:18:36.936Z,100.00
2023-05-10T02:18:49.985Z,100.00
2023-05-10T02:19:03.067Z,100.00
2023-05-10T02:19:15.592Z,100.00
2023-05-10T02:19:28.823Z,100.00
2023-05-10T02:19:44.075Z,100.00
2023-05-10T02:19:57.365Z,100.00
2023-05-10T02:20:11.139Z,100.00
2023-05-10T02:20:24.510Z,100.00
2023-05-10T02:20:37.242Z,100.00
2023-05-10T02:20:49.561Z,100.00
2023-05-10T02:21:02.974Z,100.00
2023-05-10T02:21:17.767Z,100.00
2023-05-10T02:21:30.868Z,100.00
2023-05-10T02:21:42.970Z,100.00
2023-05-10T02:21:56.164Z,100.00
2023-05-10T02:22:10.041Z,100.00
2023-05-10T02:22:23.096Z,100.00
2023-05-10T02:22:36.674Z,100.00
2023-05-10T02:22:51.531Z,100.00
2023-05-10T02:23:05.396Z,100.00
2023-05-10T02:23:18.546Z,100.00
2023-05-10T02:23:31.368Z,100.00
2023-05-10T02:23:44.084Z,100.00
2023-05-10T02:23:58.073Z,100.00
2023-05-10T02:24:12.260Z,100.00
2023-05-10T02:24:26.087Z,100.00
2023-05-10T02:24:40.495Z,100.00
2023-05-10T02:24:52.786Z,100.00
2023-05-10T02:25:05.439Z,100.00
2023-05-10T02:25:18.911Z,100.00
2023-05-10T02:25:32.614Z,100.00
2023-05-10T02:25:46.269Z,100.00
2023-05-10T02:25:59.725Z,100.00
2023-05-10T02:26:11.976Z,100.00
2023-05-10T02:26:25.271Z,100.00
2023-05-10T02:26:39.039Z,100.00
2023-05-10T02:26:54.987Z,100.00
2023-05-10T02:27:07.855Z,100.00
2023-05-10T02:27:21.424Z,100.00
2023-05-10T02:27:34.595Z,100.00
2023-05-10T02:27:48.447Z,100.00
2023-05-10T02:28:02.579Z,100.00
2023-05-10T02:28:15.532Z,100.00
2023-05-10T02:28:28.030Z,100.00
2023-05-10T02:28:41.784Z,100.00
2023-05-10T02:28:55.047Z,100.00
2023-05-10T02:29:08.643Z,100.00
2023-05-10T02:29:21.279Z,100.00
2023-05-10T02:29:34.369Z,100.00
2023-05-10T02:29:47.571Z,100.00
2023-05-10T02:30:01.514Z,100.00
2023-05-10T02:30:14.844Z,100.00
2023-05-10T02:30:27.072Z,100.00
2023-05-10T02:30:39.751Z,100.00
2023-05-10T02:30:52.188Z,100.00
2023-05-10T02:31:04.316Z,100.00
2023-05-10T02:31:16.893Z,100.00
2023-05-10T02:31:29.098Z,100.00
2023-05-10T02:31:41.064Z,100.00
2023-05-10T02:31:54.208Z,100.00
2023-05-10T02:32:06.810Z,100.00
2023-05-10T02:32:20.468Z,100.00
2023-05-10T02:32:32.460Z,100.00
2023-05-10T02:32:45.079Z,100.00
2023-05-10T02:32:57.716Z,100.00
2023-05-10T02:33:10.153Z,100.00
2023-05-10T02:33:22.784Z,100.00
2023-05-10T02:33:35.810Z,100.00
2023-05-10T02:33:49.935Z,100.00
2023-05-10T02:34:04.950Z,100.00
2023-05-10T02:34:16.737Z,100.00
2023-05-10T02:34:31.044Z,100.00
2023-05-10T02:34:43.622Z,100.00
2023-05-10T02:34:56.884Z,100.00
2023-05-10T02:35:10.654Z,100.00
2023-05-10T02:35:24.586Z,100.00
2023-05-10T02:35:38.628Z,100.00
2023-05-10T02:35:51.930Z,100.00
2023-05-10T02:36:04.146Z,100.00
2023-05-10T02:36:17.347Z,100.00
2023-05-10T02:36:29.959Z,100.00
2023-05-10T02:36:43.331Z,100.00
2023-05-10T02:36:56.328Z,100.00
2023-05-10T02:37:08.288Z,100.00
2023-05-10T02:37:21.307Z,100.00
2023-05-10T02:37:35.195Z,100.00
2023-05-10T02:37:49.452Z,100.00
2023-05-10T02:38:02.443Z,100.00
2023-05-10T02:38:16.585Z,100.00
2023-05-10T02:38:29.272Z,100.00
2023-05-10T02:38:42.416Z,100.00
2023-05-10T02:38:54.782Z,100.00
2023-05-10T02:39:09.456Z,100.00
2023-05-10T02:39:22.114Z,100.00
2023-05-10T02:39:34.667Z,100.00
2023-05-10T02:39:47.699Z,100.00
2023-05-10T02:39:59.950Z,100.00
2023-05-10T02:40:13.206Z,100.00
2023-05-10T02:40:28.592Z,100.00
2023-05-10T02:40:43.331Z,100.00
2023-05-10T02:40:56.538Z,100.00
2023-05-10T02:41:09.510Z,100.00
2023-05-10T02:41:23.609Z,100.00
2023-05-10T02:41:35.277Z,100.00
2023-05-10T02:41:48.925Z,100.00
2023-05-10T02:42:02.572Z,100.00
2023-05-10T02:42:18.694Z,100.00
2023-05-10T02:42:33.656Z,100.00
2023-05-10T02:42:48.494Z,100.00
2023-05-10T02:43:03.384Z,100.00
2023-05-10T02:43:18.004Z,100.00
2023-05-10T02:43:33.200Z,100.00
2023-05-10T02:43:46.363Z,100.00
2023-05-10T02:44:02.018Z,100.00
2023-05-10T02:44:16.433Z,100.00
2023-05-10T02:44:30.313Z,100.00
2023-05-10T02:44:42.662Z,100.00
2023-05-10T02:44:57.495Z,100.00
2023-05-10T02:45:13.283Z,100.00
2023-05-10T02:45:29.537Z,100.00
2023-05-10T02:45:43.459Z,100.00
2023-05-10T02:45:55.396Z,100.00
2023-05-10T02:46:07.251Z,100.00
2023-05-10T02:46:21.141Z,100.00
2023-05-10T02:46:33.056Z,100.00
2023-05-10T02:46:45.461Z,100.00
2023-05-10T02:46:57.249Z,100.00
2023-05-10T02:47:09.012Z,100.00
2023-05-10T02:47:22.140Z,100.00
2023-05-10T02:47:34.253Z,100.00
2023-05-10T02:47:45.954Z,100.00
2023-05-10T02:47:59.052Z,100.00
2023-05-10T02:48:10.913Z,100.00
2023-05-10T02:48:22.676Z,100.00
2023-05-10T02:48:34.837Z,100.00
2023-05-10T02:48:46.680Z,100.00
2023-05-10T02:48:58.664Z,100.00
2023-05-10T02:49:11.755Z,100.00
2023-05-10T02:49:23.470Z,100.00
2023-05-10T02:49:35.504Z,100.00
2023-05-10T02:49:47.341Z,100.00
2023-05-10T02:50:00.336Z,100.00
2023-05-10T02:50:12.281Z,100.00
2023-05-10T02:50:28.378Z,100.00
2023-05-10T02:50:43.730Z,100.00
2023-05-10T02:51:00.626Z,100.00
2023-05-10T02:51:15.112Z,100.00
2023-05-10T02:51:31.183Z,100.00
2023-05-10T02:51:47.963Z,100.00
2023-05-10T02:52:01.521Z,100.00
2023-05-10T02:52:17.545Z,100.00
2023-05-10T02:52:37.289Z,100.00
2023-05-10T02:52:52.174Z,100.00
2023-05-10T02:53:10.641Z,100.00
2023-05-10T02:53:30.778Z,100.00